Courtland, California
Current Conditions -  °F | °C
As of 12:53 PM on Saturday 25 Oct 2014 (Local Time) from KSAC Reporting Station
Broken Clouds Broken Clouds  
Wind Chill: 69°   Ceiling: 4100
Heat Index: 69°   Visibility: 10mi
Dew Point: 56°   Wind: 12mph
Humidity: 63%   Direction: 190°S
Pressure: 30.03"   Gusts: 23mph
Location:  38.33°N, 121.57°W
Report Text: KSAC 251953Z 19010G20KT 10SM SCT030 BKN041 21/13 A3003 RMK AO2 SLP170 T02060133
Loading
Personal Weather Stations






























Interactive Weather Map
Tropical Storm Tracking
New forecast layout! Learn more

10-Day Weather Forecast

Advertisements
Track Severe Weather on mobile